Decoded Metar for KSPW (SPENCER in IA, USA) (IATA:SPW) | Meteo·Mobile Aviation Weather
aviador You're here:

KSPW Decoded Metar

SPENCER in IA, USA
Report Time2019-10-18 13:53:00
UTC Time2019-10-18 14:03:08
Flight Rules vfr VFR
Wind150° at 17 Gusting to 25 kt
W.Decomp.*RWY 12: 15.4 kt HW 7.2 kt RCW
RWY 18: 13.9 kt HW 9.8 kt LCW
Visibility9999 m
Phenomena:N/A
Clouds:N/A
Expected CloudBase > 2,000 ft AGL from Temp-Dew spread
CeilingNone
Temp11°C (ISA -1)
Dew Point06°C (72% RH)
AAT4.0°C
QNH1004 hPa
Density Alt1,598 ft
Elevation1,322 ft
Report Wrong Elevation
Raw Report
KSPW 181353Z AUTO 15017G25KT 10SM CLR 11/06 A2965 RMK AO2 PK WND
15026/1331 SLP042 T01110061=

Extra information for KSPW:More info

Metar Taf Metar & Taf Last 4 Metars F.Rules Stats Wind Profile Meteogram Temp Stats Airport Information Weather charts Add Link Nearby VenuesMetar ALERT Operation Metar Decoded Social comments

AIRNAV info for KSPW